sensor_id;sensor_type;location;lat;lon;timestamp;P1;durP1;ratioP1;P2;durP2;ratioP2
8654;SDS011;13500;52.514;13.462;2024-01-15T00:00:32;12.23;;;9.17;;
8654;SDS011;13500;52.514;13.462;2024-01-15T00:03:00;13.63;;;8.83;;
8654;SDS011;13500;52.514;13.462;2024-01-15T00:05:28;14.90;;;8.70;;
8654;SDS011;13500;52.514;13.462;2024-01-15T00:07:56;11.40;;;8.77;;
8654;SDS011;13500;52.514;13.462;2024-01-15T00:10:25;12.70;;;9.13;;
8654;SDS011;13500;52.514;13.462;2024-01-15T00:12:53;12.47;;;8.47;;
8654;SDS011;13500;52.514;13.462;2024-01-15T00:15:21;11.67;;;8.43;;
8654;SDS011;13500;52.514;13.462;2024-01-15T00:17:50;11.80;;;8.93;;
8654;SDS011;13500;52.514;13.462;2024-01-15T00:20:18;11.77;;;7.93;;
8654;SDS011;13500;52.514;13.462;2024-01-15T00:22:46;10.83;;;8.00;;
8654;SDS011;13500;52.514;13.462;2024-01-15T00:25:14;18.97;;;8.53;;
8654;SDS011;13500;52.514;13.462;2024-01-15T00:27:43;11.77;;;8.87;;
8654;SDS011;13500;52.514;13.462;2024-01-15T00:30:12;16.40;;;9.13;;
8654;SDS011;13500;52.514;13.462;2024-01-15T00:32:40;13.20;;;8.87;;
8654;SDS011;13500;52.514;13.462;2024-01-15T00:35:08;12.63;;;9.03;;
8654;SDS011;13500;52.514;13.462;2024-01-15T00:37:37;11.13;;;7.53;;
8654;SDS011;13500;52.514;13.462;2024-01-15T00:40:06;11.50;;;7.83;;
8654;SDS011;13500;52.514;13.462;2024-01-15T00:42:35;10.53;;;7.77;;
8654;SDS011;13500;52.514;13.462;2024-01-15T00:45:04;10.67;;;8.13;;
8654;SDS011;13500;52.514;13.462;2024-01-15T00:47:36;11.87;;;8.53;;
8654;SDS011;13500;52.514;13.462;2024-01-15T00:50:04;14.40;;;9.03;;
8654;SDS011;13500;52.514;13.462;2024-01-15T00:52:33;12.80;;;8.40;;
8654;SDS011;13500;52.514;13.462;2024-01-15T00:55:01;13.30;;;7.60;;
8654;SDS011;13500;52.514;13.462;2024-01-15T00:57:29;11.80;;;8.07;;
8654;SDS011;13500;52.514;13.462;2024-01-15T00:59:57;13.53;;;8.87;;
8654;SDS011;13500;52.514;13.462;2024-01-15T01:02:30;11.37;;;7.63;;
8654;SDS011;13500;52.514;13.462;2024-01-15T01:04:58;13.43;;;8.30;;
8654;SDS011;13500;52.514;13.462;2024-01-15T01:07:25;10.60;;;8.37;;
8654;SDS011;13500;52.514;13.462;2024-01-15T01:09:53;11.60;;;7.67;;
8654;SDS011;13500;52.514;13.462;2024-01-15T01:12:22;15.67;;;9.17;;
8654;SDS011;13500;52.514;13.462;2024-01-15T01:14:50;13.77;;;9.33;;
8654;SDS011;13500;52.514;13.462;2024-01-15T01:17:18;13.37;;;8.87;;
8654;SDS011;13500;52.514;13.462;2024-01-15T01:19:47;14.67;;;9.20;;
8654;SDS011;13500;52.514;13.462;2024-01-15T01:22:16;12.80;;;8.73;;
8654;SDS011;13500;52.514;13.462;2024-01-15T01:24:44;14.53;;;9.20;;
8654;SDS011;13500;52.514;13.462;2024-01-15T01:27:12;15.93;;;9.70;;
8654;SDS011;13500;52.514;13.462;2024-01-15T01:29:40;16.77;;;10.23;;
8654;SDS011;13500;52.514;13.462;2024-01-15T01:32:08;15.50;;;9.50;;
8654;SDS011;13500;52.514;13.462;2024-01-15T01:34:39;18.10;;;10.20;;
8654;SDS011;13500;52.514;13.462;2024-01-15T01:37:10;15.20;;;9.73;;
8654;SDS011;13500;52.514;13.462;2024-01-15T01:39:39;12.50;;;8.07;;
8654;SDS011;13500;52.514;13.462;2024-01-15T01:42:07;17.43;;;9.80;;
8654;SDS011;13500;52.514;13.462;2024-01-15T01:44:35;15.53;;;10.13;;
8654;SDS011;13500;52.514;13.462;2024-01-15T01:47:03;13.50;;;7.67;;
8654;SDS011;13500;52.514;13.462;2024-01-15T01:49:31;16.97;;;10.00;;
8654;SDS011;13500;52.514;13.462;2024-01-15T01:52:02;17.87;;;9.67;;
8654;SDS011;13500;52.514;13.462;2024-01-15T01:54:34;16.47;;;9.53;;
8654;SDS011;13500;52.514;13.462;2024-01-15T01:57:03;16.70;;;10.07;;
8654;SDS011;13500;52.514;13.462;2024-01-15T01:59:32;14.00;;;8.87;;
8654;SDS011;13500;52.514;13.462;2024-01-15T02:02:00;15.70;;;10.33;;
8654;SDS011;13500;52.514;13.462;2024-01-15T02:04:31;20.37;;;10.50;;
8654;SDS011;13500;52.514;13.462;2024-01-15T02:06:59;18.00;;;10.60;;
8654;SDS011;13500;52.514;13.462;2024-01-15T02:09:27;17.10;;;11.13;;
8654;SDS011;13500;52.514;13.462;2024-01-15T02:11:57;21.23;;;10.33;;
8654;SDS011;13500;52.514;13.462;2024-01-15T02:14:25;19.27;;;10.67;;
8654;SDS011;13500;52.514;13.462;2024-01-15T02:16:53;19.10;;;9.77;;
8654;SDS011;13500;52.514;13.462;2024-01-15T02:19:21;20.70;;;11.33;;
8654;SDS011;13500;52.514;13.462;2024-01-15T02:21:49;13.97;;;9.27;;
8654;SDS011;13500;52.514;13.462;2024-01-15T02:24:18;17.73;;;10.47;;
8654;SDS011;13500;52.514;13.462;2024-01-15T02:26:46;15.87;;;10.40;;
8654;SDS011;13500;52.514;13.462;2024-01-15T02:29:14;19.33;;;10.93;;
8654;SDS011;13500;52.514;13.462;2024-01-15T02:31:42;17.87;;;9.53;;
8654;SDS011;13500;52.514;13.462;2024-01-15T02:34:10;15.23;;;8.83;;
8654;SDS011;13500;52.514;13.462;2024-01-15T02:36:38;14.50;;;8.17;;
8654;SDS011;13500;52.514;13.462;2024-01-15T02:39:06;15.40;;;8.30;;
8654;SDS011;13500;52.514;13.462;2024-01-15T02:41:36;12.63;;;7.23;;
8654;SDS011;13500;52.514;13.462;2024-01-15T02:44:04;13.83;;;8.30;;
8654;SDS011;13500;52.514;13.462;2024-01-15T02:46:32;15.87;;;7.97;;
8654;SDS011;13500;52.514;13.462;2024-01-15T02:49:00;11.13;;;7.60;;
8654;SDS011;13500;52.514;13.462;2024-01-15T02:51:28;12.30;;;7.80;;
8654;SDS011;13500;52.514;13.462;2024-01-15T02:53:56;14.40;;;7.40;;
8654;SDS011;13500;52.514;13.462;2024-01-15T02:56:24;13.17;;;7.13;;
8654;SDS011;13500;52.514;13.462;2024-01-15T02:58:53;10.07;;;6.47;;
8654;SDS011;13500;52.514;13.462;2024-01-15T03:01:21;11.47;;;7.10;;
8654;SDS011;13500;52.514;13.462;2024-01-15T03:03:49;11.50;;;7.63;;
8654;SDS011;13500;52.514;13.462;2024-01-15T03:06:17;12.70;;;7.43;;
8654;SDS011;13500;52.514;13.462;2024-01-15T03:08:45;12.57;;;7.60;;
8654;SDS011;13500;52.514;13.462;2024-01-15T03:11:13;13.83;;;8.00;;
8654;SDS011;13500;52.514;13.462;2024-01-15T03:13:41;11.70;;;7.43;;
8654;SDS011;13500;52.514;13.462;2024-01-15T03:16:10;11.70;;;7.33;;
8654;SDS011;13500;52.514;13.462;2024-01-15T03:18:38;9.33;;;5.60;;
8654;SDS011;13500;52.514;13.462;2024-01-15T03:21:06;10.43;;;6.23;;
8654;SDS011;13500;52.514;13.462;2024-01-15T03:23:34;10.60;;;6.37;;
8654;SDS011;13500;52.514;13.462;2024-01-15T03:26:02;11.17;;;7.07;;
8654;SDS011;13500;52.514;13.462;2024-01-15T03:28:30;10.53;;;6.53;;
8654;SDS011;13500;52.514;13.462;2024-01-15T03:30:58;9.90;;;5.90;;
8654;SDS011;13500;52.514;13.462;2024-01-15T03:33:28;12.57;;;6.87;;
8654;SDS011;13500;52.514;13.462;2024-01-15T03:35:56;9.83;;;6.10;;
8654;SDS011;13500;52.514;13.462;2024-01-15T03:38:24;10.43;;;6.33;;
8654;SDS011;13500;52.514;13.462;2024-01-15T03:40:52;10.00;;;5.30;;
8654;SDS011;13500;52.514;13.462;2024-01-15T03:43:20;16.83;;;6.30;;
8654;SDS011;13500;52.514;13.462;2024-01-15T03:45:48;14.07;;;5.43;;
8654;SDS011;13500;52.514;13.462;2024-01-15T03:48:16;11.77;;;5.93;;
8654;SDS011;13500;52.514;13.462;2024-01-15T03:50:45;9.07;;;5.57;;
8654;SDS011;13500;52.514;13.462;2024-01-15T03:53:13;9.17;;;5.27;;
8654;SDS011;13500;52.514;13.462;2024-01-15T03:55:41;11.23;;;6.17;;
8654;SDS011;13500;52.514;13.462;2024-01-15T03:58:09;8.77;;;5.60;;
8654;SDS011;13500;52.514;13.462;2024-01-15T04:00:37;9.63;;;5.40;;
8654;SDS011;13500;52.514;13.462;2024-01-15T04:03:05;10.43;;;5.33;;
8654;SDS011;13500;52.514;13.462;2024-01-15T04:05:33;12.97;;;6.37;;
8654;SDS011;13500;52.514;13.462;2024-01-15T04:08:03;12.67;;;5.63;;
8654;SDS011;13500;52.514;13.462;2024-01-15T04:10:32;12.07;;;3.93;;
8654;SDS011;13500;52.514;13.462;2024-01-15T04:13:00;10.17;;;5.00;;
8654;SDS011;13500;52.514;13.462;2024-01-15T04:15:30;13.03;;;5.00;;
8654;SDS011;13500;52.514;13.462;2024-01-15T04:17:58;13.40;;;5.77;;
8654;SDS011;13500;52.514;13.462;2024-01-15T04:20:27;10.80;;;4.87;;
8654;SDS011;13500;52.514;13.462;2024-01-15T04:22:55;8.70;;;4.97;;
8654;SDS011;13500;52.514;13.462;2024-01-15T04:25:24;9.43;;;5.60;;
8654;SDS011;13500;52.514;13.462;2024-01-15T04:27:52;11.80;;;5.40;;
8654;SDS011;13500;52.514;13.462;2024-01-15T04:30:20;12.60;;;4.70;;
8654;SDS011;13500;52.514;13.462;2024-01-15T04:32:48;9.43;;;4.63;;
8654;SDS011;13500;52.514;13.462;2024-01-15T04:35:16;10.63;;;4.90;;
8654;SDS011;13500;52.514;13.462;2024-01-15T04:37:44;6.57;;;4.17;;
8654;SDS011;13500;52.514;13.462;2024-01-15T04:40:12;9.03;;;3.83;;
8654;SDS011;13500;52.514;13.462;2024-01-15T04:42:42;8.17;;;4.23;;
8654;SDS011;13500;52.514;13.462;2024-01-15T04:45:12;12.10;;;4.00;;
8654;SDS011;13500;52.514;13.462;2024-01-15T04:47:40;10.73;;;4.13;;
8654;SDS011;13500;52.514;13.462;2024-01-15T04:50:09;6.60;;;3.93;;
8654;SDS011;13500;52.514;13.462;2024-01-15T04:52:36;9.10;;;3.97;;
8654;SDS011;13500;52.514;13.462;2024-01-15T04:55:05;7.77;;;3.80;;
8654;SDS011;13500;52.514;13.462;2024-01-15T04:57:33;6.30;;;3.30;;
8654;SDS011;13500;52.514;13.462;2024-01-15T05:00:02;7.90;;;3.47;;
8654;SDS011;13500;52.514;13.462;2024-01-15T05:02:31;9.57;;;3.93;;
8654;SDS011;13500;52.514;13.462;2024-01-15T05:04:59;7.17;;;3.80;;
8654;SDS011;13500;52.514;13.462;2024-01-15T05:07:27;7.67;;;3.60;;
8654;SDS011;13500;52.514;13.462;2024-01-15T05:09:55;8.70;;;3.17;;
8654;SDS011;13500;52.514;13.462;2024-01-15T05:12:23;6.50;;;3.13;;
8654;SDS011;13500;52.514;13.462;2024-01-15T05:14:51;5.47;;;2.93;;
8654;SDS011;13500;52.514;13.462;2024-01-15T05:17:20;4.20;;;2.60;;
8654;SDS011;13500;52.514;13.462;2024-01-15T05:19:48;7.20;;;2.90;;
8654;SDS011;13500;52.514;13.462;2024-01-15T05:22:16;7.10;;;2.73;;
8654;SDS011;13500;52.514;13.462;2024-01-15T05:24:44;4.23;;;2.60;;
8654;SDS011;13500;52.514;13.462;2024-01-15T05:27:12;5.33;;;2.40;;
8654;SDS011;13500;52.514;13.462;2024-01-15T05:29:40;5.90;;;2.93;;
8654;SDS011;13500;52.514;13.462;2024-01-15T05:32:08;6.17;;;2.80;;
8654;SDS011;13500;52.514;13.462;2024-01-15T05:34:37;5.40;;;2.57;;
8654;SDS011;13500;52.514;13.462;2024-01-15T05:37:05;7.53;;;2.73;;
8654;SDS011;13500;52.514;13.462;2024-01-15T05:39:33;7.30;;;2.63;;
8654;SDS011;13500;52.514;13.462;2024-01-15T05:42:01;8.87;;;2.40;;
8654;SDS011;13500;52.514;13.462;2024-01-15T05:44:29;7.73;;;2.60;;
8654;SDS011;13500;52.514;13.462;2024-01-15T05:46:57;11.33;;;3.00;;
8654;SDS011;13500;52.514;13.462;2024-01-15T05:49:25;5.10;;;1.90;;
8654;SDS011;13500;52.514;13.462;2024-01-15T05:51:54;7.30;;;2.57;;
8654;SDS011;13500;52.514;13.462;2024-01-15T05:54:22;6.63;;;2.27;;
8654;SDS011;13500;52.514;13.462;2024-01-15T05:56:50;7.87;;;2.77;;
8654;SDS011;13500;52.514;13.462;2024-01-15T05:59:18;4.20;;;2.17;;
8654;SDS011;13500;52.514;13.462;2024-01-15T06:01:46;9.87;;;2.60;;
8654;SDS011;13500;52.514;13.462;2024-01-15T06:04:14;6.17;;;2.93;;
8654;SDS011;13500;52.514;13.462;2024-01-15T06:06:42;6.57;;;2.70;;
8654;SDS011;13500;52.514;13.462;2024-01-15T06:09:11;6.07;;;2.20;;
8654;SDS011;13500;52.514;13.462;2024-01-15T06:11:40;7.93;;;2.17;;
8654;SDS011;13500;52.514;13.462;2024-01-15T06:14:08;9.57;;;2.50;;
8654;SDS011;13500;52.514;13.462;2024-01-15T06:16:36;7.23;;;1.93;;
8654;SDS011;13500;52.514;13.462;2024-01-15T06:19:04;8.47;;;2.60;;
8654;SDS011;13500;52.514;13.462;2024-01-15T06:21:32;8.10;;;2.50;;
8654;SDS011;13500;52.514;13.462;2024-01-15T06:24:00;7.83;;;2.77;;
8654;SDS011;13500;52.514;13.462;2024-01-15T06:26:30;9.13;;;2.23;;
8654;SDS011;13500;52.514;13.462;2024-01-15T06:28:58;4.20;;;2.40;;
8654;SDS011;13500;52.514;13.462;2024-01-15T06:31:26;5.40;;;2.07;;
8654;SDS011;13500;52.514;13.462;2024-01-15T06:33:54;8.67;;;3.00;;
8654;SDS011;13500;52.514;13.462;2024-01-15T06:36:23;10.17;;;2.50;;
8654;SDS011;13500;52.514;13.462;2024-01-15T06:38:50;7.07;;;2.07;;
8654;SDS011;13500;52.514;13.462;2024-01-15T06:41:18;8.30;;;2.40;;
8654;SDS011;13500;52.514;13.462;2024-01-15T06:43:48;4.53;;;1.73;;
8654;SDS011;13500;52.514;13.462;2024-01-15T06:46:19;5.53;;;1.97;;
8654;SDS011;13500;52.514;13.462;2024-01-15T06:48:47;6.13;;;2.07;;
8654;SDS011;13500;52.514;13.462;2024-01-15T06:51:16;5.43;;;1.90;;
8654;SDS011;13500;52.514;13.462;2024-01-15T06:53:44;5.40;;;1.73;;
8654;SDS011;13500;52.514;13.462;2024-01-15T06:56:12;6.70;;;2.30;;
8654;SDS011;13500;52.514;13.462;2024-01-15T06:58:40;9.60;;;2.30;;
8654;SDS011;13500;52.514;13.462;2024-01-15T07:01:09;9.77;;;2.40;;
8654;SDS011;13500;52.514;13.462;2024-01-15T07:03:37;8.80;;;2.70;;
8654;SDS011;13500;52.514;13.462;2024-01-15T07:06:05;6.57;;;2.30;;
8654;SDS011;13500;52.514;13.462;2024-01-15T07:08:33;8.43;;;1.83;;
8654;SDS011;13500;52.514;13.462;2024-01-15T07:11:03;11.37;;;2.50;;
8654;SDS011;13500;52.514;13.462;2024-01-15T07:13:31;6.70;;;1.70;;
8654;SDS011;13500;52.514;13.462;2024-01-15T07:15:59;13.63;;;2.20;;
8654;SDS011;13500;52.514;13.462;2024-01-15T07:18:28;6.87;;;2.27;;
8654;SDS011;13500;52.514;13.462;2024-01-15T07:20:56;10.20;;;2.30;;
8654;SDS011;13500;52.514;13.462;2024-01-15T07:23:25;7.70;;;2.30;;
8654;SDS011;13500;52.514;13.462;2024-01-15T07:25:56;6.60;;;2.17;;
8654;SDS011;13500;52.514;13.462;2024-01-15T07:28:24;7.43;;;1.90;;
8654;SDS011;13500;52.514;13.462;2024-01-15T07:30:52;5.93;;;1.60;;
8654;SDS011;13500;52.514;13.462;2024-01-15T07:33:21;5.83;;;1.67;;
8654;SDS011;13500;52.514;13.462;2024-01-15T07:35:50;7.60;;;2.03;;
8654;SDS011;13500;52.514;13.462;2024-01-15T07:38:19;7.90;;;2.00;;
8654;SDS011;13500;52.514;13.462;2024-01-15T07:40:47;8.60;;;1.80;;
8654;SDS011;13500;52.514;13.462;2024-01-15T07:43:15;4.77;;;1.63;;
8654;SDS011;13500;52.514;13.462;2024-01-15T07:45:43;13.83;;;2.20;;
8654;SDS011;13500;52.514;13.462;2024-01-15T07:48:12;6.90;;;2.00;;
8654;SDS011;13500;52.514;13.462;2024-01-15T07:50:40;8.70;;;2.00;;
8654;SDS011;13500;52.514;13.462;2024-01-15T07:53:09;6.77;;;1.83;;
8654;SDS011;13500;52.514;13.462;2024-01-15T07:55:37;6.50;;;2.30;;
8654;SDS011;13500;52.514;13.462;2024-01-15T07:58:05;5.07;;;1.87;;
8654;SDS011;13500;52.514;13.462;2024-01-15T08:00:42;12.43;;;2.20;;
8654;SDS011;13500;52.514;13.462;2024-01-15T08:03:11;13.73;;;2.70;;
8654;SDS011;13500;52.514;13.462;2024-01-15T08:05:39;7.97;;;2.23;;
8654;SDS011;13500;52.514;13.462;2024-01-15T08:08:07;13.47;;;2.30;;
8654;SDS011;13500;52.514;13.462;2024-01-15T08:10:37;5.30;;;1.80;;
8654;SDS011;13500;52.514;13.462;2024-01-15T08:13:05;8.57;;;2.20;;
8654;SDS011;13500;52.514;13.462;2024-01-15T08:15:34;8.00;;;2.17;;
8654;SDS011;13500;52.514;13.462;2024-01-15T08:18:03;8.20;;;2.60;;
8654;SDS011;13500;52.514;13.462;2024-01-15T08:20:31;9.90;;;2.00;;
8654;SDS011;13500;52.514;13.462;2024-01-15T08:23:02;8.73;;;2.23;;
8654;SDS011;13500;52.514;13.462;2024-01-15T08:25:30;7.93;;;1.93;;
8654;SDS011;13500;52.514;13.462;2024-01-15T08:27:59;10.03;;;2.53;;
8654;SDS011;13500;52.514;13.462;2024-01-15T08:30:27;9.77;;;1.80;;
8654;SDS011;13500;52.514;13.462;2024-01-15T08:32:55;6.83;;;1.77;;
8654;SDS011;13500;52.514;13.462;2024-01-15T08:35:33;6.80;;;1.90;;
8654;SDS011;13500;52.514;13.462;2024-01-15T08:38:01;8.60;;;2.00;;
8654;SDS011;13500;52.514;13.462;2024-01-15T08:40:29;11.43;;;2.40;;
8654;SDS011;13500;52.514;13.462;2024-01-15T08:42:58;11.13;;;2.00;;
8654;SDS011;13500;52.514;13.462;2024-01-15T08:45:27;10.17;;;2.53;;
8654;SDS011;13500;52.514;13.462;2024-01-15T08:47:58;5.27;;;1.83;;
8654;SDS011;13500;52.514;13.462;2024-01-15T08:50:26;8.20;;;3.57;;
8654;SDS011;13500;52.514;13.462;2024-01-15T08:52:54;16.80;;;11.30;;
8654;SDS011;13500;52.514;13.462;2024-01-15T08:55:22;5.60;;;2.00;;
8654;SDS011;13500;52.514;13.462;2024-01-15T08:57:50;5.33;;;2.40;;
8654;SDS011;13500;52.514;13.462;2024-01-15T09:00:19;10.57;;;2.47;;
8654;SDS011;13500;52.514;13.462;2024-01-15T09:02:47;6.50;;;2.30;;
8654;SDS011;13500;52.514;13.462;2024-01-15T09:05:15;8.37;;;2.30;;
8654;SDS011;13500;52.514;13.462;2024-01-15T09:07:44;8.90;;;2.83;;
8654;SDS011;13500;52.514;13.462;2024-01-15T09:10:12;6.93;;;2.00;;
8654;SDS011;13500;52.514;13.462;2024-01-15T09:12:40;11.83;;;2.20;;
8654;SDS011;13500;52.514;13.462;2024-01-15T09:15:09;7.90;;;2.47;;
8654;SDS011;13500;52.514;13.462;2024-01-15T09:17:38;9.50;;;2.07;;
8654;SDS011;13500;52.514;13.462;2024-01-15T09:20:06;4.23;;;1.50;;
8654;SDS011;13500;52.514;13.462;2024-01-15T09:22:35;5.20;;;1.70;;
8654;SDS011;13500;52.514;13.462;2024-01-15T09:25:03;10.23;;;2.23;;
8654;SDS011;13500;52.514;13.462;2024-01-15T09:27:31;5.30;;;1.93;;
8654;SDS011;13500;52.514;13.462;2024-01-15T09:30:00;6.27;;;1.70;;
8654;SDS011;13500;52.514;13.462;2024-01-15T09:32:29;9.07;;;2.53;;
8654;SDS011;13500;52.514;13.462;2024-01-15T09:35:00;11.77;;;3.23;;
8654;SDS011;13500;52.514;13.462;2024-01-15T09:37:28;13.10;;;3.20;;
8654;SDS011;13500;52.514;13.462;2024-01-15T09:40:12;4.33;;;1.53;;
8654;SDS011;13500;52.514;13.462;2024-01-15T09:42:42;6.33;;;1.70;;
8654;SDS011;13500;52.514;13.462;2024-01-15T09:45:11;5.37;;;1.90;;
8654;SDS011;13500;52.514;13.462;2024-01-15T09:47:39;8.03;;;1.90;;
8654;SDS011;13500;52.514;13.462;2024-01-15T09:50:13;5.83;;;1.90;;
8654;SDS011;13500;52.514;13.462;2024-01-15T09:52:43;9.07;;;1.93;;
8654;SDS011;13500;52.514;13.462;2024-01-15T09:55:11;7.07;;;2.03;;
8654;SDS011;13500;52.514;13.462;2024-01-15T09:57:40;5.73;;;1.90;;
8654;SDS011;13500;52.514;13.462;2024-01-15T10:00:08;6.23;;;1.90;;
8654;SDS011;13500;52.514;13.462;2024-01-15T10:02:38;9.10;;;2.20;;
8654;SDS011;13500;52.514;13.462;2024-01-15T10:05:07;5.33;;;1.60;;
8654;SDS011;13500;52.514;13.462;2024-01-15T10:07:37;6.73;;;2.30;;
8654;SDS011;13500;52.514;13.462;2024-01-15T10:10:06;6.47;;;2.23;;
8654;SDS011;13500;52.514;13.462;2024-01-15T10:12:35;7.60;;;2.00;;
8654;SDS011;13500;52.514;13.462;2024-01-15T10:15:04;6.07;;;2.13;;
8654;SDS011;13500;52.514;13.462;2024-01-15T10:17:32;5.40;;;2.00;;
8654;SDS011;13500;52.514;13.462;2024-01-15T10:20:00;6.03;;;2.00;;
8654;SDS011;13500;52.514;13.462;2024-01-15T10:22:30;7.90;;;2.23;;
8654;SDS011;13500;52.514;13.462;2024-01-15T10:25:00;3.43;;;1.33;;
8654;SDS011;13500;52.514;13.462;2024-01-15T10:27:29;5.53;;;1.83;;
8654;SDS011;13500;52.514;13.462;2024-01-15T10:29:58;4.73;;;1.43;;
8654;SDS011;13500;52.514;13.462;2024-01-15T10:32:27;4.13;;;1.87;;
8654;SDS011;13500;52.514;13.462;2024-01-15T10:34:55;4.20;;;1.70;;
8654;SDS011;13500;52.514;13.462;2024-01-15T10:37:23;6.03;;;1.97;;
8654;SDS011;13500;52.514;13.462;2024-01-15T10:39:55;4.13;;;1.67;;
8654;SDS011;13500;52.514;13.462;2024-01-15T10:42:24;2.77;;;1.70;;
8654;SDS011;13500;52.514;13.462;2024-01-15T10:44:52;5.47;;;1.60;;
8654;SDS011;13500;52.514;13.462;2024-01-15T10:47:20;3.40;;;1.77;;
8654;SDS011;13500;52.514;13.462;2024-01-15T10:49:48;3.60;;;1.30;;
8654;SDS011;13500;52.514;13.462;2024-01-15T10:52:17;6.70;;;2.57;;
8654;SDS011;13500;52.514;13.462;2024-01-15T10:54:45;3.10;;;1.70;;
8654;SDS011;13500;52.514;13.462;2024-01-15T10:57:14;6.30;;;1.43;;
8654;SDS011;13500;52.514;13.462;2024-01-15T10:59:44;4.97;;;1.50;;
8654;SDS011;13500;52.514;13.462;2024-01-15T11:02:13;5.97;;;2.00;;
8654;SDS011;13500;52.514;13.462;2024-01-15T11:04:42;4.23;;;1.50;;
8654;SDS011;13500;52.514;13.462;2024-01-15T11:07:10;3.13;;;1.30;;
8654;SDS011;13500;52.514;13.462;2024-01-15T11:09:38;3.60;;;1.43;;
8654;SDS011;13500;52.514;13.462;2024-01-15T11:12:06;3.53;;;1.40;;
8654;SDS011;13500;52.514;13.462;2024-01-15T11:14:38;2.53;;;1.60;;
8654;SDS011;13500;52.514;13.462;2024-01-15T11:17:08;3.90;;;1.20;;
8654;SDS011;13500;52.514;13.462;2024-01-15T11:19:36;12.03;;;1.70;;
8654;SDS011;13500;52.514;13.462;2024-01-15T11:22:07;2.90;;;1.23;;
8654;SDS011;13500;52.514;13.462;2024-01-15T11:24:36;4.23;;;1.47;;
8654;SDS011;13500;52.514;13.462;2024-01-15T11:27:05;3.87;;;1.53;;
8654;SDS011;13500;52.514;13.462;2024-01-15T11:29:34;2.57;;;1.37;;
8654;SDS011;13500;52.514;13.462;2024-01-15T11:32:03;2.00;;;1.20;;
8654;SDS011;13500;52.514;13.462;2024-01-15T11:43:15;2.67;;;1.57;;
8654;SDS011;13500;52.514;13.462;2024-01-15T11:45:47;3.70;;;1.50;;
8654;SDS011;13500;52.514;13.462;2024-01-15T11:48:19;4.60;;;1.57;;
8654;SDS011;13500;52.514;13.462;2024-01-15T11:50:51;2.37;;;1.30;;
8654;SDS011;13500;52.514;13.462;2024-01-15T11:53:21;3.47;;;1.60;;
8654;SDS011;13500;52.514;13.462;2024-01-15T11:55:57;4.57;;;1.70;;
8654;SDS011;13500;52.514;13.462;2024-01-15T11:58:26;1.50;;;1.40;;
8654;SDS011;13500;52.514;13.462;2024-01-15T12:00:54;4.60;;;1.70;;
8654;SDS011;13500;52.514;13.462;2024-01-15T12:03:22;3.00;;;1.70;;
8654;SDS011;13500;52.514;13.462;2024-01-15T12:05:53;3.97;;;1.90;;
8654;SDS011;13500;52.514;13.462;2024-01-15T12:08:21;3.80;;;2.00;;
8654;SDS011;13500;52.514;13.462;2024-01-15T12:10:50;5.63;;;1.90;;
8654;SDS011;13500;52.514;13.462;2024-01-15T12:13:18;2.13;;;1.70;;
8654;SDS011;13500;52.514;13.462;2024-01-15T12:15:47;7.47;;;2.13;;
8654;SDS011;13500;52.514;13.462;2024-01-15T12:18:17;3.60;;;2.23;;
8654;SDS011;13500;52.514;13.462;2024-01-15T12:20:46;3.43;;;2.03;;
8654;SDS011;13500;52.514;13.462;2024-01-15T12:23:16;5.00;;;1.90;;
8654;SDS011;13500;52.514;13.462;2024-01-15T12:25:45;2.53;;;2.10;;
8654;SDS011;13500;52.514;13.462;2024-01-15T12:28:13;2.83;;;1.70;;
8654;SDS011;13500;52.514;13.462;2024-01-15T12:30:42;3.20;;;1.60;;
8654;SDS011;13500;52.514;13.462;2024-01-15T12:33:11;3.43;;;1.63;;
8654;SDS011;13500;52.514;13.462;2024-01-15T12:35:39;2.53;;;1.60;;
8654;SDS011;13500;52.514;13.462;2024-01-15T12:38:07;2.53;;;1.67;;
8654;SDS011;13500;52.514;13.462;2024-01-15T12:40:36;4.90;;;1.80;;
8654;SDS011;13500;52.514;13.462;2024-01-15T12:43:05;2.40;;;1.90;;
8654;SDS011;13500;52.514;13.462;2024-01-15T12:45:33;2.80;;;1.90;;
8654;SDS011;13500;52.514;13.462;2024-01-15T12:48:04;3.50;;;1.87;;
8654;SDS011;13500;52.514;13.462;2024-01-15T12:50:33;2.40;;;1.60;;
8654;SDS011;13500;52.514;13.462;2024-01-15T12:53:01;2.47;;;1.73;;
8654;SDS011;13500;52.514;13.462;2024-01-15T12:55:29;3.67;;;1.80;;
8654;SDS011;13500;52.514;13.462;2024-01-15T12:57:59;2.40;;;1.60;;
8654;SDS011;13500;52.514;13.462;2024-01-15T13:00:27;2.20;;;1.60;;
8654;SDS011;13500;52.514;13.462;2024-01-15T13:02:55;3.57;;;2.07;;
8654;SDS011;13500;52.514;13.462;2024-01-15T13:05:24;5.17;;;2.00;;
8654;SDS011;13500;52.514;13.462;2024-01-15T13:07:54;3.33;;;1.73;;
8654;SDS011;13500;52.514;13.462;2024-01-15T13:10:22;2.93;;;1.77;;
8654;SDS011;13500;52.514;13.462;2024-01-15T13:12:52;2.47;;;1.80;;
8654;SDS011;13500;52.514;13.462;2024-01-15T13:15:21;4.70;;;2.43;;
8654;SDS011;13500;52.514;13.462;2024-01-15T13:17:49;3.47;;;2.03;;
8654;SDS011;13500;52.514;13.462;2024-01-15T13:20:17;7.43;;;3.20;;
8654;SDS011;13500;52.514;13.462;2024-01-15T13:22:45;7.30;;;3.03;;
8654;SDS011;13500;52.514;13.462;2024-01-15T13:25:13;3.27;;;2.03;;
8654;SDS011;13500;52.514;13.462;2024-01-15T13:27:42;2.67;;;1.77;;
8654;SDS011;13500;52.514;13.462;2024-01-15T13:30:11;5.27;;;2.37;;
8654;SDS011;13500;52.514;13.462;2024-01-15T13:32:41;5.57;;;2.97;;
8654;SDS011;13500;52.514;13.462;2024-01-15T13:35:09;3.60;;;2.07;;
8654;SDS011;13500;52.514;13.462;2024-01-15T13:37:40;15.03;;;6.10;;
8654;SDS011;13500;52.514;13.462;2024-01-15T13:40:09;3.17;;;1.93;;
8654;SDS011;13500;52.514;13.462;2024-01-15T13:42:43;3.30;;;1.83;;
8654;SDS011;13500;52.514;13.462;2024-01-15T13:45:12;1.93;;;1.60;;
8654;SDS011;13500;52.514;13.462;2024-01-15T13:47:42;9.30;;;3.90;;
8654;SDS011;13500;52.514;13.462;2024-01-15T13:50:11;4.63;;;2.37;;
8654;SDS011;13500;52.514;13.462;2024-01-15T13:52:39;4.03;;;1.90;;
8654;SDS011;13500;52.514;13.462;2024-01-15T13:55:07;12.00;;;5.37;;
8654;SDS011;13500;52.514;13.462;2024-01-15T13:57:36;4.43;;;2.13;;
8654;SDS011;13500;52.514;13.462;2024-01-15T14:00:05;6.00;;;2.17;;
8654;SDS011;13500;52.514;13.462;2024-01-15T14:02:38;2.67;;;1.43;;
8654;SDS011;13500;52.514;13.462;2024-01-15T14:05:07;3.90;;;1.90;;
8654;SDS011;13500;52.514;13.462;2024-01-15T14:07:35;5.70;;;1.50;;
8654;SDS011;13500;52.514;13.462;2024-01-15T14:10:03;3.03;;;1.87;;
8654;SDS011;13500;52.514;13.462;2024-01-15T14:12:32;4.07;;;1.53;;
8654;SDS011;13500;52.514;13.462;2024-01-15T14:15:01;4.03;;;1.83;;
8654;SDS011;13500;52.514;13.462;2024-01-15T14:17:29;4.13;;;2.10;;
8654;SDS011;13500;52.514;13.462;2024-01-15T14:19:57;5.57;;;1.93;;
8654;SDS011;13500;52.514;13.462;2024-01-15T14:22:26;3.90;;;1.80;;
8654;SDS011;13500;52.514;13.462;2024-01-15T14:24:54;4.67;;;2.07;;
8654;SDS011;13500;52.514;13.462;2024-01-15T14:27:22;4.63;;;1.87;;
8654;SDS011;13500;52.514;13.462;2024-01-15T14:29:50;5.37;;;1.80;;
8654;SDS011;13500;52.514;13.462;2024-01-15T14:32:18;5.23;;;2.17;;
8654;SDS011;13500;52.514;13.462;2024-01-15T14:34:46;6.40;;;2.07;;
8654;SDS011;13500;52.514;13.462;2024-01-15T14:37:15;5.50;;;2.00;;
8654;SDS011;13500;52.514;13.462;2024-01-15T14:39:44;4.97;;;1.90;;
8654;SDS011;13500;52.514;13.462;2024-01-15T14:42:12;5.53;;;1.90;;
8654;SDS011;13500;52.514;13.462;2024-01-15T14:44:40;2.63;;;1.60;;
8654;SDS011;13500;52.514;13.462;2024-01-15T14:47:08;4.60;;;1.70;;
8654;SDS011;13500;52.514;13.462;2024-01-15T14:49:35;2.43;;;1.57;;
8654;SDS011;13500;52.514;13.462;2024-01-15T14:52:04;2.77;;;1.53;;
8654;SDS011;13500;52.514;13.462;2024-01-15T14:54:33;3.50;;;1.73;;
8654;SDS011;13500;52.514;13.462;2024-01-15T14:57:02;4.37;;;1.60;;
8654;SDS011;13500;52.514;13.462;2024-01-15T14:59:31;4.80;;;1.90;;